Montecito, California
Current Conditions -  °F | °C
As of 1:53 PM on Wednesday 22 Oct 2014 (Local Time) from KSBA Reporting Station
Scattered Clouds Scattered Clouds  
Wind Chill: 77°   Ceiling: Unl
Heat Index: 79°   Visibility: 10mi
Dew Point: 56°   Wind: 12mph
Humidity: 48%   Direction: 260°W
Pressure: 29.91"   Gusts: NA
Location:  34.4354°N, 119.641°W
Report Text: KSBA 222053Z 26010KT 10SM SCT200 25/13 A2991 RMK AO2 SLP128 T02500133 58013
Loading
Personal Weather Stations






























Interactive Weather Map
Tropical Storm Tracking
New forecast layout! Learn more

10-Day Weather Forecast

Advertisements
Track Severe Weather on mobile